createdAt,value
2017-03-27T00:00:04.322Z,37.5
2017-03-27T00:01:14.725Z,37.41
2017-03-27T00:02:24.665Z,37.5
2017-03-27T00:03:34.530Z,37.21
2017-03-27T00:04:44.799Z,37.31
2017-03-27T00:05:54.729Z,37.31
2017-03-27T00:07:05.185Z,37.41
2017-03-27T00:08:15.126Z,37.31
2017-03-27T00:09:25.380Z,37.21
2017-03-27T00:10:35.318Z,37.21
2017-03-27T00:11:45.257Z,37.41
2017-03-27T00:12:55.055Z,37.41
2017-03-27T00:14:04.986Z,37.31
2017-03-27T00:15:14.918Z,37.41
2017-03-27T00:16:24.849Z,37.31
2017-03-27T00:17:34.458Z,37.5
2017-03-27T00:18:44.523Z,37.5
2017-03-27T00:19:54.777Z,37.5
2017-03-27T00:21:04.693Z,37.31
2017-03-27T00:22:14.627Z,37.41
2017-03-27T00:23:24.862Z,37.41
2017-03-27T00:24:35.280Z,37.5
2017-03-27T00:25:45.205Z,37.5
2017-03-27T00:26:54.817Z,37.5
2017-03-27T00:28:05.071Z,37.5
2017-03-27T00:29:14.401Z,37.5
2017-03-27T00:30:24.437Z,37.41
2017-03-27T00:31:34.092Z,37.5
2017-03-27T00:32:43.717Z,37.5
2017-03-27T00:33:53.963Z,37.5
2017-03-27T00:35:03.601Z,37.6
2017-03-27T00:36:13.686Z,37.5
2017-03-27T00:37:23.976Z,37.5
2017-03-27T00:38:33.931Z,37.5
2017-03-27T00:39:43.905Z,37.5
2017-03-27T00:40:53.861Z,37.6
2017-03-27T00:42:04.255Z,37.5
2017-03-27T00:43:14.204Z,37.6
2017-03-27T00:44:24.141Z,37.5
2017-03-27T00:45:34.423Z,37.5
2017-03-27T00:46:44.682Z,37.31
2017-03-27T00:47:54.730Z,37.5
2017-03-27T00:49:04.983Z,37.5
2017-03-27T00:50:14.924Z,37.5
2017-03-27T00:51:25.155Z,37.5
2017-03-27T00:52:35.391Z,37.5
2017-03-27T00:53:45.759Z,37.5
2017-03-27T00:54:56.013Z,37.5
2017-03-27T00:56:05.322Z,37.5
2017-03-27T00:57:14.627Z,37.6
2017-03-27T00:58:24.858Z,37.5
2017-03-27T00:59:35.243Z,37.6
2017-03-27T01:00:45.467Z,37.6
2017-03-27T01:01:55.379Z,37.5
2017-03-27T01:03:05.298Z,37.41
2017-03-27T01:04:15.534Z,37.6
2017-03-27T01:05:25.593Z,37.5
2017-03-27T01:06:35.510Z,37.6
2017-03-27T01:07:45.121Z,37.6
2017-03-27T01:08:55.030Z,37.5
2017-03-27T01:10:04.956Z,37.5
2017-03-27T01:11:15.054Z,37.5
2017-03-27T01:12:25.021Z,37.6
2017-03-27T01:13:34.942Z,37.6
2017-03-27T01:14:45.091Z,37.41
2017-03-27T01:15:54.405Z,37.6
2017-03-27T01:17:04.493Z,37.6
2017-03-27T01:18:14.422Z,37.6
2017-03-27T01:19:24.372Z,37.6
2017-03-27T01:20:34.630Z,37.6
2017-03-27T01:21:44.879Z,37.5
2017-03-27T01:22:55.429Z,37.6
2017-03-27T01:24:05.043Z,37.41
2017-03-27T01:25:15.296Z,37.48
2017-03-27T01:26:25.253Z,37.6
2017-03-27T01:27:35.491Z,37.5
2017-03-27T01:28:45.567Z,37.6
2017-03-27T01:29:55.811Z,37.5
2017-03-27T01:31:05.119Z,37.6
2017-03-27T01:32:15.736Z,37.5
2017-03-27T01:33:25.959Z,37.6
2017-03-27T01:34:35.748Z,37.6
2017-03-27T01:35:45.972Z,37.5
2017-03-27T01:36:56.202Z,37.5
2017-03-27T01:38:05.813Z,37.5
2017-03-27T01:39:15.740Z,37.6
2017-03-27T01:40:25.513Z,37.6
2017-03-27T01:41:35.420Z,37.6
2017-03-27T01:42:44.724Z,37.5
2017-03-27T01:43:54.638Z,37.6
2017-03-27T01:45:04.543Z,37.6
2017-03-27T01:46:14.595Z,37.6
2017-03-27T01:47:24.493Z,37.58
2017-03-27T01:48:34.106Z,37.58
2017-03-27T01:49:43.719Z,37.58
2017-03-27T01:50:53.312Z,37.58
2017-03-27T01:52:03.774Z,37.7
2017-03-27T01:53:13.681Z,37.6
2017-03-27T01:54:23.602Z,37.6
2017-03-27T01:55:33.505Z,37.68
2017-03-27T01:56:43.416Z,37.58
2017-03-27T01:57:53.182Z,37.58
2017-03-27T01:59:03.090Z,37.68
2017-03-27T02:00:12.706Z,37.58
2017-03-27T02:01:22.921Z,37.48
2017-03-27T02:02:32.222Z,37.48
2017-03-27T02:03:41.981Z,37.68
2017-03-27T02:04:51.889Z,37.48
2017-03-27T02:06:01.834Z,37.68
2017-03-27T02:07:12.041Z,37.5
2017-03-27T02:08:21.965Z,37.48
2017-03-27T02:09:31.733Z,37.48
2017-03-27T02:10:41.638Z,37.58
2017-03-27T02:11:51.549Z,37.68
2017-03-27T02:13:01.145Z,37.58
2017-03-27T02:14:11.355Z,37.58
2017-03-27T02:15:21.724Z,37.58
2017-03-27T02:16:31.936Z,37.58
2017-03-27T02:17:41.844Z,37.68
2017-03-27T02:18:51.747Z,37.68
2017-03-27T02:20:01.969Z,37.58
2017-03-27T02:21:11.711Z,37.58
2017-03-27T02:22:21.925Z,37.58
2017-03-27T02:23:32.131Z,37.58
2017-03-27T02:24:41.733Z,37.58
2017-03-27T02:25:51.948Z,37.58
2017-03-27T02:27:02.272Z,37.68
2017-03-27T02:28:12.488Z,37.58
2017-03-27T02:29:22.696Z,37.48
2017-03-27T02:30:32.904Z,37.58
2017-03-27T02:31:42.802Z,37.48
2017-03-27T02:32:53.185Z,37.68
2017-03-27T02:34:03.114Z,37.58
2017-03-27T02:35:12.722Z,37.68
2017-03-27T02:36:22.933Z,37.58
2017-03-27T02:37:32.540Z,37.48
2017-03-27T02:38:42.917Z,37.58
2017-03-27T02:39:52.523Z,37.68
2017-03-27T02:41:02.433Z,37.58
2017-03-27T02:42:12.038Z,37.68
2017-03-27T02:43:21.951Z,37.68
2017-03-27T02:44:32.321Z,37.68
2017-03-27T02:45:42.237Z,37.58
2017-03-27T02:46:51.842Z,37.58
2017-03-27T02:48:02.071Z,37.68
2017-03-27T02:49:11.691Z,37.58
2017-03-27T02:50:22.073Z,37.58
2017-03-27T02:51:31.986Z,37.58
2017-03-27T02:52:42.206Z,37.48
2017-03-27T02:53:52.127Z,37.58
2017-03-27T02:55:02.043Z,37.48
2017-03-27T02:56:12.574Z,37.58
2017-03-27T02:57:22.495Z,37.58
2017-03-27T02:58:32.089Z,37.58
2017-03-27T02:59:42.297Z,37.58
2017-03-27T03:00:52.212Z,37.68
2017-03-27T03:02:02.581Z,37.48
2017-03-27T03:03:12.796Z,37.48
2017-03-27T03:04:23.051Z,37.48
2017-03-27T03:05:32.958Z,37.48
2017-03-27T03:06:43.176Z,37.48
2017-03-27T03:07:53.237Z,37.48
2017-03-27T03:09:03.468Z,37.48
2017-03-27T03:10:13.689Z,37.58
2017-03-27T03:11:23.287Z,37.48
2017-03-27T03:12:32.900Z,37.58
2017-03-27T03:13:42.661Z,37.58
2017-03-27T03:14:52.572Z,37.48
2017-03-27T03:16:02.178Z,37.58
2017-03-27T03:17:12.088Z,37.58
2017-03-27T03:18:22.306Z,37.58
2017-03-27T03:19:32.669Z,37.48
2017-03-27T03:20:42.903Z,37.58
2017-03-27T03:21:52.820Z,37.58
2017-03-27T03:23:02.734Z,37.48
2017-03-27T03:24:12.958Z,37.58
2017-03-27T03:25:23.041Z,37.48
2017-03-27T03:26:32.629Z,37.58
2017-03-27T03:27:42.845Z,37.58
2017-03-27T03:28:53.057Z,37.68
2017-03-27T03:30:02.668Z,37.58
2017-03-27T03:31:12.421Z,37.58
2017-03-27T03:32:22.332Z,37.39
2017-03-27T03:33:32.264Z,37.48
2017-03-27T03:34:41.869Z,37.58
2017-03-27T03:35:52.083Z,37.48
2017-03-27T03:37:02.463Z,37.58
2017-03-27T03:38:12.684Z,37.58
2017-03-27T03:39:22.604Z,37.58
2017-03-27T03:40:32.209Z,37.58
2017-03-27T03:41:42.417Z,37.58
2017-03-27T03:42:52.178Z,37.58
2017-03-27T03:44:02.104Z,37.58
2017-03-27T03:45:12.328Z,37.48
2017-03-27T03:46:22.548Z,37.58
2017-03-27T03:47:32.456Z,37.39
2017-03-27T03:48:42.829Z,37.58
2017-03-27T03:49:52.736Z,37.39
2017-03-27T03:51:02.960Z,37.48
2017-03-27T03:52:12.568Z,37.48
2017-03-27T03:53:22.168Z,37.48
2017-03-27T03:54:32.271Z,37.39
2017-03-27T03:55:41.875Z,37.48
2017-03-27T03:56:51.494Z,37.58
2017-03-27T03:58:01.713Z,37.58
2017-03-27T03:59:11.930Z,37.48
2017-03-27T04:00:21.754Z,37.58
2017-03-27T04:01:31.973Z,37.58
2017-03-27T04:02:41.569Z,37.48
2017-03-27T04:03:51.805Z,37.58
2017-03-27T04:05:01.731Z,37.39
2017-03-27T04:06:11.798Z,37.39
2017-03-27T04:07:21.715Z,37.48
2017-03-27T04:08:31.946Z,37.48
2017-03-27T04:09:41.876Z,37.58
2017-03-27T04:10:51.777Z,37.48
2017-03-27T04:12:02.158Z,37.48
2017-03-27T04:13:12.076Z,37.48
2017-03-27T04:14:21.980Z,37.58
2017-03-27T04:15:32.195Z,37.48
2017-03-27T04:16:41.798Z,37.48
2017-03-27T04:17:51.544Z,37.48
2017-03-27T04:19:01.485Z,37.48
2017-03-27T04:20:11.389Z,37.48
2017-03-27T04:21:21.295Z,37.58
2017-03-27T04:22:30.925Z,37.39
2017-03-27T04:23:40.980Z,37.48
2017-03-27T04:24:51.197Z,37.48
2017-03-27T04:26:01.427Z,37.48
2017-03-27T04:27:11.642Z,37.29
2017-03-27T04:28:21.239Z,37.39
2017-03-27T04:29:31.756Z,37.39
2017-03-27T04:30:41.662Z,37.29
2017-03-27T04:31:51.578Z,37.39
2017-03-27T04:33:01.796Z,37.39
2017-03-27T04:34:11.704Z,37.29
2017-03-27T04:35:21.429Z,37.29
2017-03-27T04:36:31.341Z,37.29
2017-03-27T04:37:41.265Z,37.39
2017-03-27T04:38:51.487Z,37.29
2017-03-27T04:40:01.406Z,37.29
2017-03-27T04:41:11.715Z,37.29
2017-03-27T04:42:21.314Z,37.19
2017-03-27T04:43:31.227Z,37.19
2017-03-27T04:44:41.155Z,37.19
2017-03-27T04:45:51.116Z,37.29
2017-03-27T04:47:01.436Z,36.81
2017-03-27T04:48:11.379Z,37.1
2017-03-27T04:49:21.297Z,37.01
2017-03-27T04:50:31.235Z,36.81
2017-03-27T04:51:40.837Z,36.81
2017-03-27T04:52:50.851Z,36.83
2017-03-27T04:54:00.472Z,36.83
2017-03-27T04:55:10.386Z,36.73
2017-03-27T04:56:19.990Z,36.73
2017-03-27T04:57:29.898Z,36.73
2017-03-27T04:58:39.912Z,36.25
2017-03-27T04:59:49.843Z,36.35
2017-03-27T05:01:00.067Z,36.25
2017-03-27T05:02:09.985Z,36.15
2017-03-27T05:03:20.207Z,35.98
2017-03-27T05:04:30.287Z,36.07
2017-03-27T05:05:39.881Z,35.98
2017-03-27T05:06:50.088Z,35.78
2017-03-27T05:07:59.705Z,35.98
2017-03-27T05:09:09.617Z,35.5
2017-03-27T05:10:19.073Z,35.59
2017-03-27T05:11:28.986Z,35.4
2017-03-27T05:12:38.272Z,35.4
2017-03-27T05:13:47.879Z,35.42
2017-03-27T05:14:57.489Z,35.22
2017-03-27T05:16:07.542Z,35.32
2017-03-27T05:17:17.156Z,35.22
2017-03-27T05:18:27.388Z,35.03
2017-03-27T05:19:37.343Z,35.32
2017-03-27T05:20:47.276Z,35.03
2017-03-27T05:21:57.032Z,35.03
2017-03-27T05:23:07.237Z,35.03
2017-03-27T05:24:17.151Z,35.22
2017-03-27T05:25:27.067Z,35.05
2017-03-27T05:26:37.277Z,34.86
2017-03-27T05:27:47.184Z,34.66
2017-03-27T05:28:57.089Z,34.47
2017-03-27T05:30:07.313Z,34.38
2017-03-27T05:31:17.531Z,34.56
2017-03-27T05:32:27.792Z,34.2
2017-03-27T05:33:38.165Z,34.86
2017-03-27T05:34:47.765Z,34.47
2017-03-27T05:35:57.679Z,34.78
2017-03-27T05:37:07.653Z,34.68
2017-03-27T05:38:17.589Z,34.39
2017-03-27T05:39:27.355Z,34.29
2017-03-27T05:40:37.287Z,34.29
2017-03-27T05:41:47.275Z,34.58
2017-03-27T05:42:57.503Z,34.48
2017-03-27T05:44:07.108Z,34.29
2017-03-27T05:45:16.876Z,34.68
2017-03-27T05:46:26.792Z,34.48
2017-03-27T05:47:36.758Z,35.16
2017-03-27T05:48:46.982Z,35.24
2017-03-27T05:49:57.240Z,35.8
2017-03-27T05:51:07.628Z,36.48
2017-03-27T05:52:17.619Z,36.94
2017-03-27T05:53:27.868Z,37.12
2017-03-27T05:54:37.793Z,37.31
2017-03-27T05:55:47.710Z,37.31
2017-03-27T05:56:57.770Z,37.21
2017-03-27T05:58:07.704Z,37.21
2017-03-27T05:59:17.921Z,37.21
2017-03-27T06:00:27.529Z,37.21
2017-03-27T06:01:37.144Z,36.83
2017-03-27T06:02:46.926Z,37.12
2017-03-27T06:03:56.837Z,36.83
2017-03-27T06:05:06.783Z,37.12
2017-03-27T06:06:16.985Z,37.02
2017-03-27T06:07:26.278Z,36.93
2017-03-27T06:08:36.033Z,36.93
2017-03-27T06:09:45.368Z,36.63
2017-03-27T06:10:55.610Z,36.63
2017-03-27T06:12:05.578Z,36.63
2017-03-27T06:13:15.211Z,36.63
2017-03-27T06:14:25.614Z,36.25
2017-03-27T06:15:35.531Z,36.25
2017-03-27T06:16:45.779Z,35.98
2017-03-27T06:17:55.390Z,36.46
2017-03-27T06:19:05.016Z,36.27
2017-03-27T06:20:15.621Z,35.98
2017-03-27T06:21:25.545Z,36.17
2017-03-27T06:22:35.467Z,36.17
2017-03-27T06:23:45.716Z,36.07
2017-03-27T06:24:55.633Z,36.07
2017-03-27T06:26:05.412Z,36.07
2017-03-27T06:27:15.703Z,35.88
2017-03-27T06:28:25.354Z,35.88
2017-03-27T06:29:35.290Z,35.98
2017-03-27T06:30:45.516Z,35.98
2017-03-27T06:31:55.897Z,35.88
2017-03-27T06:33:06.131Z,35.69
2017-03-27T06:34:16.052Z,35.88
2017-03-27T06:35:26.277Z,35.88
2017-03-27T06:36:36.535Z,35.78
2017-03-27T06:37:46.563Z,35.88
2017-03-27T06:38:56.792Z,35.78
2017-03-27T06:40:07.020Z,35.78
2017-03-27T06:41:16.653Z,35.69
2017-03-27T06:42:26.245Z,35.59
2017-03-27T06:43:35.653Z,35.59
2017-03-27T06:44:45.288Z,35.69
2017-03-27T06:45:55.226Z,35.69
2017-03-27T06:47:05.457Z,35.59
2017-03-27T06:48:15.400Z,35.59
2017-03-27T06:49:25.748Z,35.59
2017-03-27T06:50:35.986Z,35.59
2017-03-27T06:51:45.305Z,35.59
2017-03-27T06:52:55.549Z,35.59
2017-03-27T06:54:05.166Z,35.59
2017-03-27T06:55:15.188Z,35.5
2017-03-27T06:56:24.187Z,35.4
2017-03-27T06:57:33.482Z,35.5
2017-03-27T06:58:43.725Z,35.4
2017-03-27T06:59:53.958Z,35.3
2017-03-27T07:01:03.985Z,35.4
2017-03-27T07:02:13.302Z,35.4
2017-03-27T07:03:22.673Z,35.5
2017-03-27T07:04:32.613Z,35.5
2017-03-27T07:05:42.529Z,35.5
2017-03-27T07:06:52.909Z,35.4
2017-03-27T07:08:02.832Z,35.5
2017-03-27T07:09:13.079Z,35.5
2017-03-27T07:10:23.002Z,35.5
2017-03-27T07:11:32.619Z,35.5
2017-03-27T07:12:42.446Z,35.3
2017-03-27T07:13:52.688Z,35.5
2017-03-27T07:15:02.603Z,35.4
2017-03-27T07:16:12.520Z,35.69
2017-03-27T07:17:22.153Z,35.4
2017-03-27T07:18:32.216Z,35.59
2017-03-27T07:19:42.139Z,35.5
2017-03-27T07:20:52.067Z,35.5
2017-03-27T07:22:01.974Z,35.21
2017-03-27T07:23:11.896Z,35.21
2017-03-27T07:24:22.283Z,35.21
2017-03-27T07:25:32.200Z,35.4
2017-03-27T07:26:41.508Z,35.21
2017-03-27T07:27:51.738Z,35.3
2017-03-27T07:29:01.665Z,35.3
2017-03-27T07:30:11.152Z,35.3
2017-03-27T07:31:21.078Z,35.21
2017-03-27T07:32:30.391Z,35.11
2017-03-27T07:33:40.687Z,35.21
2017-03-27T07:34:50.609Z,35.21
2017-03-27T07:36:00.468Z,35.21
2017-03-27T07:37:10.394Z,35.3
2017-03-27T07:38:20.003Z,35.21
2017-03-27T07:39:30.611Z,35.3
2017-03-27T07:40:40.529Z,35.11
2017-03-27T07:41:50.599Z,35.3
2017-03-27T07:43:00.205Z,35.02
2017-03-27T07:44:09.821Z,35.21
2017-03-27T07:45:19.737Z,35.3
2017-03-27T07:46:29.662Z,35.02
2017-03-27T07:47:39.108Z,35.21
2017-03-27T07:48:48.729Z,35.11
2017-03-27T07:49:58.351Z,35.11
2017-03-27T07:51:07.972Z,35.3
2017-03-27T07:52:18.250Z,35.21
2017-03-27T07:53:28.744Z,35.11
2017-03-27T07:54:37.744Z,35.21
2017-03-27T07:55:47.993Z,35.11
2017-03-27T07:56:57.915Z,35.11
2017-03-27T07:58:07.834Z,35.11
2017-03-27T07:59:17.713Z,35.21
2017-03-27T08:00:27.373Z,35.21
2017-03-27T08:01:37.286Z,35.11
2017-03-27T08:02:47.200Z,35.11
2017-03-27T08:03:57.457Z,35.11
2017-03-27T08:05:07.938Z,35.21
2017-03-27T08:06:17.866Z,35.21
2017-03-27T08:07:27.807Z,35.02
2017-03-27T08:08:37.746Z,35.02
2017-03-27T08:09:47.379Z,35.11
2017-03-27T08:10:57.299Z,34.92
2017-03-27T08:12:06.928Z,35.02
2017-03-27T08:13:16.859Z,35.02
2017-03-27T08:14:26.502Z,35.02
2017-03-27T08:15:36.731Z,35.02
2017-03-27T08:16:47.118Z,34.92
2017-03-27T08:17:57.045Z,35.02
2017-03-27T08:19:06.997Z,35.11
2017-03-27T08:20:16.971Z,35.11
2017-03-27T08:21:27.196Z,35.21
2017-03-27T08:22:37.567Z,35.11
2017-03-27T08:23:47.491Z,35.21
2017-03-27T08:24:57.410Z,35.21
2017-03-27T08:26:07.025Z,35.3
2017-03-27T08:27:16.634Z,35.21
2017-03-27T08:28:26.713Z,35.21
2017-03-27T08:29:36.662Z,35.11
2017-03-27T08:30:45.997Z,35.21
2017-03-27T08:31:55.907Z,34.82
2017-03-27T08:33:05.526Z,34.92
2017-03-27T08:34:15.622Z,34.82
2017-03-27T08:35:24.936Z,34.72
2017-03-27T08:36:34.267Z,34.82
2017-03-27T08:37:43.588Z,34.53
2017-03-27T08:38:52.906Z,34.53
2017-03-27T08:40:02.618Z,34.72
2017-03-27T08:41:12.866Z,34.53
2017-03-27T08:42:22.480Z,34.72
2017-03-27T08:43:31.478Z,34.53
2017-03-27T08:44:41.716Z,34.72
2017-03-27T08:45:51.430Z,34.44
2017-03-27T08:47:01.664Z,34.72
2017-03-27T08:48:11.594Z,34.53
2017-03-27T08:49:21.520Z,34.53
2017-03-27T08:50:31.731Z,34.92
2017-03-27T08:51:41.219Z,34.63
2017-03-27T08:52:50.522Z,34.53
2017-03-27T08:54:00.448Z,34.44
2017-03-27T08:55:09.752Z,34.44
2017-03-27T08:56:19.367Z,34.92
2017-03-27T08:57:29.078Z,34.53
2017-03-27T08:58:39.000Z,34.53
2017-03-27T08:59:48.929Z,34.53
2017-03-27T09:00:59.173Z,34.44
2017-03-27T09:02:09.087Z,34.53
2017-03-27T09:03:19.104Z,34.53
2017-03-27T09:04:28.724Z,35.02
2017-03-27T09:05:38.339Z,34.44
2017-03-27T09:06:48.259Z,34.44
2017-03-27T09:07:57.880Z,34.53
2017-03-27T09:09:08.426Z,34.53
2017-03-27T09:10:18.655Z,34.44
2017-03-27T09:11:28.264Z,34.44
2017-03-27T09:12:37.872Z,34.44
2017-03-27T09:13:47.510Z,34.34
2017-03-27T09:14:57.584Z,35.02
2017-03-27T09:16:07.513Z,34.53
2017-03-27T09:17:17.124Z,34.44
2017-03-27T09:18:26.754Z,34.44
2017-03-27T09:19:36.062Z,34.44
2017-03-27T09:20:46.138Z,34.44
2017-03-27T09:21:56.060Z,34.53
2017-03-27T09:23:06.271Z,34.44
2017-03-27T09:24:16.521Z,34.53
2017-03-27T09:25:26.438Z,34.44
2017-03-27T09:26:36.194Z,34.44
2017-03-27T09:27:45.486Z,34.53
2017-03-27T09:28:55.404Z,35.11
2017-03-27T09:30:05.325Z,35.21
2017-03-27T09:31:15.256Z,35.11
2017-03-27T09:32:25.636Z,34.53
2017-03-27T09:33:35.636Z,34.53
2017-03-27T09:34:45.868Z,34.34
2017-03-27T09:35:55.804Z,34.44
2017-03-27T09:37:06.525Z,34.53
2017-03-27T09:38:16.999Z,35.11
2017-03-27T09:39:27.261Z,35.11
2017-03-27T09:40:37.178Z,34.44
2017-03-27T09:41:47.100Z,34.34
2017-03-27T09:42:57.341Z,34.92
2017-03-27T09:44:07.106Z,34.24
2017-03-27T09:45:17.037Z,34.24
2017-03-27T09:46:26.949Z,34.53
2017-03-27T09:47:36.270Z,34.63
2017-03-27T09:48:46.190Z,34.24
2017-03-27T09:49:55.960Z,34.82
2017-03-27T09:51:06.174Z,34.72
2017-03-27T09:52:16.109Z,34.24
2017-03-27T09:53:26.028Z,34.24
2017-03-27T09:54:35.671Z,34.53
2017-03-27T09:55:45.759Z,34.63
2017-03-27T09:56:55.699Z,34.72
2017-03-27T09:58:05.996Z,34.53
2017-03-27T09:59:15.668Z,34.34
2017-03-27T10:00:25.297Z,34.34
2017-03-27T10:01:35.137Z,34.72
2017-03-27T10:02:45.504Z,34.34
2017-03-27T10:03:55.167Z,34.34
2017-03-27T10:05:04.491Z,34.72
2017-03-27T10:06:14.488Z,34.34
2017-03-27T10:07:25.014Z,34.44
2017-03-27T10:08:34.447Z,34.63
2017-03-27T10:09:44.769Z,34.72
2017-03-27T10:10:54.981Z,34.44
2017-03-27T10:12:05.205Z,34.63
2017-03-27T10:13:15.008Z,34.24
2017-03-27T10:14:24.756Z,34.24
2017-03-27T10:15:34.731Z,34.72
2017-03-27T10:16:44.482Z,34.63
2017-03-27T10:17:53.972Z,34.24
2017-03-27T10:19:04.552Z,34.53
2017-03-27T10:20:15.043Z,34.63
2017-03-27T10:21:25.370Z,34.24
2017-03-27T10:22:35.338Z,34.44
2017-03-27T10:23:44.959Z,34.24
2017-03-27T10:24:54.780Z,34.34
2017-03-27T10:26:04.757Z,34.44
2017-03-27T10:27:15.182Z,34.34
2017-03-27T10:28:25.618Z,34.34
2017-03-27T10:29:35.700Z,34.53
2017-03-27T10:30:45.825Z,34.44
2017-03-27T10:31:55.791Z,34.53
2017-03-27T10:33:05.410Z,34.34
2017-03-27T10:34:15.388Z,34.24
2017-03-27T10:35:24.819Z,34.14
2017-03-27T10:36:35.065Z,34.24
2017-03-27T10:37:45.036Z,34.24
2017-03-27T10:38:55.023Z,34.24
2017-03-27T10:40:05.033Z,34.24
2017-03-27T10:41:14.702Z,34.14
2017-03-27T10:42:25.245Z,34.14
2017-03-27T10:43:35.550Z,34.24
2017-03-27T10:44:45.795Z,34.24
2017-03-27T10:45:56.063Z,34.24
2017-03-27T10:47:05.773Z,34.34
2017-03-27T10:48:15.813Z,34.34
2017-03-27T10:49:26.057Z,34.44
2017-03-27T10:50:36.308Z,33.76
2017-03-27T10:51:46.244Z,34.44
2017-03-27T10:52:56.204Z,34.34
2017-03-27T10:54:05.937Z,34.53
2017-03-27T10:55:15.562Z,34.34
2017-03-27T10:56:25.783Z,34.44
2017-03-27T10:57:36.029Z,34.44
2017-03-27T10:58:45.944Z,34.44
2017-03-27T10:59:55.979Z,34.44
2017-03-27T11:01:05.605Z,33.95
2017-03-27T11:02:15.560Z,34.05
2017-03-27T11:03:25.494Z,33.76
2017-03-27T11:04:35.430Z,34.44
2017-03-27T11:05:45.769Z,33.97
2017-03-27T11:06:55.081Z,34.45
2017-03-27T11:08:05.317Z,33.86
2017-03-27T11:09:15.246Z,33.76
2017-03-27T11:10:25.165Z,33.95
2017-03-27T11:11:34.931Z,33.86
2017-03-27T11:12:44.851Z,34.44
2017-03-27T11:13:54.780Z,33.95
2017-03-27T11:15:04.403Z,34.05
2017-03-27T11:16:14.011Z,34.34
2017-03-27T11:17:24.078Z,34.44
2017-03-27T11:18:33.989Z,33.95
2017-03-27T11:19:43.914Z,34.44
2017-03-27T11:20:54.143Z,33.86
2017-03-27T11:22:03.766Z,34.44
2017-03-27T11:23:13.582Z,34.44
2017-03-27T11:24:23.192Z,33.95
2017-03-27T11:25:33.117Z,33.95
2017-03-27T11:26:43.048Z,34.05
2017-03-27T11:27:52.989Z,34.44
2017-03-27T11:29:03.381Z,33.95
2017-03-27T11:30:13.598Z,33.95
2017-03-27T11:31:22.915Z,33.95
2017-03-27T11:32:32.831Z,34.44
2017-03-27T11:33:42.767Z,34.05
2017-03-27T11:34:52.850Z,34.44
2017-03-27T11:36:03.086Z,34.44
2017-03-27T11:37:12.406Z,33.76
2017-03-27T11:38:22.712Z,33.86
2017-03-27T11:39:32.942Z,33.76
2017-03-27T11:40:42.106Z,33.95
2017-03-27T11:41:52.022Z,34.53
2017-03-27T11:43:01.953Z,33.95
2017-03-27T11:44:11.571Z,33.95
2017-03-27T11:45:21.221Z,34.05
2017-03-27T11:46:30.997Z,33.95
2017-03-27T11:47:40.334Z,33.95
2017-03-27T11:48:49.351Z,33.95
2017-03-27T11:49:58.669Z,34.05
2017-03-27T11:51:08.300Z,33.95
2017-03-27T11:52:18.081Z,33.95
2017-03-27T11:53:28.013Z,33.95
2017-03-27T11:54:37.919Z,34.05
2017-03-27T11:55:48.151Z,34.05
2017-03-27T11:56:56.830Z,34.05
2017-03-27T11:58:06.317Z,33.95
2017-03-27T11:59:15.655Z,33.86
2017-03-27T12:00:25.289Z,34.05
2017-03-27T12:01:34.624Z,34.05
2017-03-27T12:02:43.948Z,34.05
2017-03-27T12:03:53.478Z,34.05
2017-03-27T12:05:03.143Z,34.14
2017-03-27T12:06:13.364Z,34.14
2017-03-27T12:07:22.377Z,34.14
2017-03-27T12:08:32.607Z,34.14
2017-03-27T12:09:42.388Z,34.05
2017-03-27T12:10:52.320Z,34.14
2017-03-27T12:12:02.549Z,34.05
2017-03-27T12:13:12.484Z,34.05
2017-03-27T12:14:22.404Z,34.14
2017-03-27T12:15:32.186Z,34.05
2017-03-27T12:16:41.801Z,34.14
2017-03-27T12:17:52.039Z,34.14
2017-03-27T12:19:02.258Z,34.14
2017-03-27T12:20:12.500Z,34.06
2017-03-27T12:21:22.271Z,34.05
2017-03-27T12:22:32.189Z,34.05
2017-03-27T12:23:42.448Z,34.05
2017-03-27T12:24:51.470Z,34.05
2017-03-27T12:26:01.742Z,34.05
2017-03-27T12:27:11.516Z,33.95
2017-03-27T12:28:20.519Z,34.05
2017-03-27T12:29:29.857Z,34.24
2017-03-27T12:30:39.821Z,34.24
2017-03-27T12:31:49.746Z,34.05
2017-03-27T12:32:59.302Z,34.24
2017-03-27T12:34:08.943Z,34.14
2017-03-27T12:35:18.576Z,34.05
2017-03-27T12:36:28.212Z,34.14
2017-03-27T12:37:37.849Z,34.05
2017-03-27T12:38:47.603Z,34.05
2017-03-27T12:39:57.529Z,34.05
2017-03-27T12:41:07.187Z,33.86
2017-03-27T12:42:16.814Z,33.95
2017-03-27T12:43:26.446Z,33.95
2017-03-27T12:44:36.173Z,33.76
2017-03-27T12:45:45.506Z,33.87
2017-03-27T12:46:54.853Z,33.78
2017-03-27T12:48:04.804Z,33.76
2017-03-27T12:49:14.107Z,33.78
2017-03-27T12:50:23.534Z,33.2
2017-03-27T12:51:32.569Z,33.58
2017-03-27T12:52:41.578Z,33.87
2017-03-27T12:53:51.637Z,33.39
2017-03-27T12:55:01.266Z,33.58
2017-03-27T12:56:11.292Z,33.58
2017-03-27T12:57:20.008Z,33.78
2017-03-27T12:58:29.922Z,33.2
2017-03-27T12:59:39.641Z,33.39
2017-03-27T13:00:48.958Z,33.29
2017-03-27T13:01:58.693Z,33.48
2017-03-27T13:03:08.983Z,33.29
2017-03-27T13:04:19.212Z,33.2
2017-03-27T13:05:29.171Z,33.1
2017-03-27T13:06:38.782Z,33
2017-03-27T13:07:48.807Z,33.29
2017-03-27T13:08:59.065Z,33.48
2017-03-27T13:10:09.296Z,33.39
2017-03-27T13:11:19.228Z,33.39
2017-03-27T13:12:29.451Z,33.2
2017-03-27T13:13:39.538Z,33
2017-03-27T13:14:49.773Z,33.2
2017-03-27T13:15:59.680Z,33.1
2017-03-27T13:17:09.274Z,33.1
2017-03-27T13:18:18.569Z,33.1
2017-03-27T13:19:28.356Z,33
2017-03-27T13:20:38.020Z,33.2
2017-03-27T13:21:47.653Z,33.29
2017-03-27T13:22:57.268Z,33.29
2017-03-27T13:24:07.512Z,33.2
2017-03-27T13:25:16.985Z,33.1
2017-03-27T13:26:26.899Z,33.12
2017-03-27T13:27:36.538Z,33.12
2017-03-27T13:28:45.842Z,33.2
2017-03-27T13:29:56.083Z,33.1
2017-03-27T13:31:06.457Z,33.29
2017-03-27T13:32:16.076Z,33.22
2017-03-27T13:33:26.306Z,33.22
2017-03-27T13:34:35.931Z,33.29
2017-03-27T13:35:45.571Z,33.2
2017-03-27T13:36:55.630Z,33.1
2017-03-27T13:38:05.866Z,33.12
2017-03-27T13:39:16.095Z,33.29
2017-03-27T13:40:26.342Z,33.12
2017-03-27T13:41:36.569Z,33.2
2017-03-27T13:42:46.632Z,33.29
2017-03-27T13:43:56.554Z,33.12
2017-03-27T13:45:06.479Z,33.22
2017-03-27T13:46:16.728Z,33.1
2017-03-27T13:47:26.326Z,33.02
2017-03-27T13:48:36.404Z,33.1
2017-03-27T13:49:46.351Z,33.22
2017-03-27T13:50:55.955Z,33.12
2017-03-27T13:52:05.265Z,33.2
2017-03-27T13:53:14.564Z,33.2
2017-03-27T13:54:24.621Z,33.31
2017-03-27T13:55:33.926Z,33.1
2017-03-27T13:56:43.520Z,33.2
2017-03-27T13:57:53.119Z,33.1
2017-03-27T13:59:02.733Z,33.2
2017-03-27T14:00:12.178Z,33.2
2017-03-27T14:01:22.397Z,33
2017-03-27T14:02:32.627Z,33.2
2017-03-27T14:03:42.228Z,33.1
2017-03-27T14:04:52.154Z,33.29
2017-03-27T14:06:02.526Z,33.1
2017-03-27T14:07:11.833Z,33.29
2017-03-27T14:08:21.755Z,33.1
2017-03-27T14:09:31.378Z,33
2017-03-27T14:10:41.608Z,33.1
2017-03-27T14:11:51.676Z,33.1
2017-03-27T14:13:01.897Z,33.1
2017-03-27T14:14:11.194Z,33.1
2017-03-27T14:15:20.799Z,33.1
2017-03-27T14:16:30.402Z,33.29
2017-03-27T14:17:40.789Z,33.2
2017-03-27T14:18:51.022Z,33.1
2017-03-27T14:20:00.640Z,33
2017-03-27T14:21:10.549Z,33
2017-03-27T14:22:20.458Z,33.1
2017-03-27T14:23:30.845Z,33.2
2017-03-27T14:24:40.748Z,33.1
2017-03-27T14:25:50.350Z,33.1
2017-03-27T14:27:00.257Z,33.1
2017-03-27T14:28:10.482Z,33.1
2017-03-27T14:29:20.237Z,33.1
2017-03-27T14:30:30.494Z,33
2017-03-27T14:31:40.712Z,33.29
2017-03-27T14:32:50.938Z,33
2017-03-27T14:34:00.846Z,33.2
2017-03-27T14:35:10.896Z,33.29
2017-03-27T14:36:20.495Z,33.29
2017-03-27T14:37:29.795Z,33.2
2017-03-27T14:38:39.406Z,33.2
2017-03-27T14:39:49.037Z,33.2
2017-03-27T14:40:59.113Z,33.29
2017-03-27T14:42:08.483Z,33.1
2017-03-27T14:43:18.411Z,33.29
2017-03-27T14:44:28.027Z,33.2
2017-03-27T14:45:37.644Z,33.1
2017-03-27T14:46:47.660Z,33.1
2017-03-27T14:47:57.578Z,33
2017-03-27T14:49:07.501Z,33.29
2017-03-27T14:50:17.741Z,33.29
2017-03-27T14:51:27.654Z,33
2017-03-27T14:52:37.962Z,33
2017-03-27T14:53:47.894Z,33.1
2017-03-27T14:54:58.113Z,32.91
2017-03-27T14:56:08.039Z,32.81
2017-03-27T14:57:17.966Z,32.91
2017-03-27T14:58:27.379Z,32.91
2017-03-27T14:59:36.389Z,32.92
2017-03-27T15:00:46.622Z,33.12
2017-03-27T15:01:56.547Z,33.02
2017-03-27T15:03:06.156Z,32.91
2017-03-27T15:04:15.874Z,32.81
2017-03-27T15:05:25.785Z,33.02
2017-03-27T15:06:35.381Z,32.82
2017-03-27T15:07:45.601Z,33.02